createdAt,value
2023-04-21T00:03:41.970Z,86.67
2023-04-21T00:08:43.689Z,86.76
2023-04-21T00:13:45.319Z,86.87
2023-04-21T00:18:48.010Z,87.03
2023-04-21T00:23:50.133Z,88.67
2023-04-21T00:28:51.978Z,88.05
2023-04-21T00:33:54.134Z,87.87
2023-04-21T00:38:57.362Z,89.14
2023-04-21T00:44:09.457Z,88.13
2023-04-21T00:54:15.009Z,87.94
2023-04-21T00:59:18.187Z,87.35
2023-04-21T01:04:20.079Z,87.82
2023-04-21T01:09:22.064Z,88.14
2023-04-21T01:14:23.871Z,88.42
2023-04-21T01:19:28.633Z,88.49
2023-04-21T01:24:44.774Z,88.59
2023-04-21T01:29:49.806Z,88.57
2023-04-21T01:34:52.082Z,88.46
2023-04-21T01:39:55.618Z,88.67
2023-04-21T01:44:57.729Z,89.66
2023-04-21T01:49:59.602Z,89.89
2023-04-21T01:55:01.883Z,89.50
2023-04-21T02:00:04.960Z,89.61
2023-04-21T02:05:16.699Z,90.04
2023-04-21T02:10:18.647Z,90.37
2023-04-21T02:15:20.284Z,90.13
2023-04-21T02:20:21.967Z,90.33
2023-04-21T02:25:23.576Z,90.62
2023-04-21T02:30:25.188Z,89.79
2023-04-21T02:35:27.212Z,89.91
2023-04-21T02:40:29.012Z,90.02
2023-04-21T02:45:30.752Z,90.03
2023-04-21T02:50:32.388Z,89.72
2023-04-21T02:55:34.339Z,92.02
2023-04-21T03:00:37.786Z,91.27
2023-04-21T03:05:39.415Z,91.08
2023-04-21T03:10:41.605Z,91.29
2023-04-21T03:15:43.757Z,91.32
2023-04-21T03:20:45.456Z,90.96
2023-04-21T03:25:47.093Z,90.67
2023-04-21T03:30:48.708Z,90.83
2023-04-21T03:35:50.294Z,90.78
2023-04-21T03:40:51.880Z,90.80
2023-04-21T03:45:53.868Z,91.37
2023-04-21T03:50:55.741Z,91.33
2023-04-21T03:55:57.458Z,90.92
2023-04-21T04:00:59.076Z,91.01
2023-04-21T04:06:01.237Z,91.02
2023-04-21T04:11:03.094Z,91.07
2023-04-21T04:16:05.404Z,91.16
2023-04-21T04:21:07.692Z,91.67
2023-04-21T04:26:09.498Z,91.68
2023-04-21T04:31:11.277Z,92.31
2023-04-21T04:36:13.005Z,92.17
2023-04-21T04:41:15.843Z,91.76
2023-04-21T04:46:17.555Z,92.23
2023-04-21T04:51:19.136Z,93.85
2023-04-21T04:56:21.013Z,95.17
2023-04-21T05:01:25.965Z,94.16
2023-04-21T05:06:28.515Z,93.31
2023-04-21T05:11:30.216Z,92.47
2023-04-21T05:16:31.905Z,93.77
2023-04-21T05:21:33.732Z,94.51
2023-04-21T05:26:35.486Z,93.49
2023-04-21T05:31:39.019Z,92.51
2023-04-21T05:36:44.210Z,91.97
2023-04-21T05:41:45.932Z,92.07
2023-04-21T05:46:47.506Z,92.17
2023-04-21T05:51:49.160Z,92.22
2023-04-21T05:56:50.894Z,92.25
2023-04-21T06:01:52.497Z,92.24
2023-04-21T06:06:54.118Z,92.44
2023-04-21T06:11:56.949Z,92.21
2023-04-21T06:16:58.926Z,91.64
2023-04-21T06:22:00.510Z,91.33
2023-04-21T06:27:02.144Z,90.77
2023-04-21T06:32:04.071Z,90.26
2023-04-21T06:37:06.113Z,89.19
2023-04-21T06:42:07.827Z,88.30
2023-04-21T06:47:17.222Z,87.53
2023-04-21T06:52:20.208Z,86.65
2023-04-21T06:57:21.957Z,85.18
2023-04-21T07:02:23.786Z,88.46
2023-04-21T07:07:26.175Z,89.83
2023-04-21T07:12:27.873Z,90.37
2023-04-21T07:17:29.560Z,88.46
2023-04-21T07:22:31.566Z,88.15
2023-04-21T07:27:34.193Z,85.90
2023-04-21T07:32:37.576Z,85.38
2023-04-21T07:37:40.741Z,85.13
2023-04-21T07:42:42.372Z,84.04
2023-04-21T07:47:44.231Z,83.44
2023-04-21T07:52:46.039Z,84.00
2023-04-21T07:57:47.909Z,82.84
2023-04-21T08:02:49.619Z,83.38
2023-04-21T08:07:51.403Z,82.93
2023-04-21T08:12:53.052Z,81.64
2023-04-21T08:17:55.065Z,80.33
2023-04-21T08:22:57.951Z,79.11
2023-04-21T08:27:59.673Z,77.64
2023-04-21T08:33:01.398Z,76.64
2023-04-21T08:38:03.194Z,76.28
2023-04-21T08:43:08.719Z,71.33
2023-04-21T08:48:16.590Z,71.08
2023-04-21T08:53:18.260Z,66.70
2023-04-21T08:58:22.741Z,68.26
2023-04-21T09:03:27.048Z,67.55
2023-04-21T09:08:30.457Z,68.29
2023-04-21T09:13:34.289Z,66.70
2023-04-21T09:18:40.120Z,64.78
2023-04-21T09:23:43.675Z,64.34
2023-04-21T09:28:48.356Z,64.07
2023-04-21T09:34:01.153Z,61.77
2023-04-21T09:44:09.221Z,55.52
2023-04-21T09:49:13.879Z,55.07
2023-04-21T09:54:29.672Z,53.86
2023-04-21T09:59:37.029Z,54.07
2023-04-21T10:04:42.285Z,54.03
2023-04-21T10:09:57.618Z,53.90
2023-04-21T10:15:03.442Z,50.78
2023-04-21T10:20:07.072Z,52.89
2023-04-21T10:25:10.158Z,51.41
2023-04-21T10:30:29.138Z,49.10
2023-04-21T10:36:04.714Z,48.35
2023-04-21T10:41:31.052Z,48.38
2023-04-21T10:46:36.696Z,49.94
2023-04-21T10:52:00.169Z,47.98
2023-04-21T10:57:02.099Z,46.01
2023-04-21T11:07:16.480Z,46.16
2023-04-21T11:12:18.918Z,47.03
2023-04-21T11:17:21.506Z,44.26
2023-04-21T11:22:25.217Z,44.71
2023-04-21T11:27:29.169Z,44.21
2023-04-21T11:32:31.101Z,45.27
2023-04-21T11:37:32.791Z,43.22
2023-04-21T11:42:34.647Z,43.66
2023-04-21T11:47:37.594Z,43.32
2023-04-21T11:52:39.694Z,43.71
2023-04-21T11:57:41.674Z,42.59
2023-04-21T12:02:43.812Z,41.00
2023-04-21T12:07:51.915Z,43.76
2023-04-21T12:12:56.329Z,42.41
2023-04-21T12:17:58.085Z,42.40
2023-04-21T12:23:01.038Z,41.04
2023-04-21T12:28:02.807Z,40.02
2023-04-21T12:33:04.711Z,40.02
2023-04-21T12:38:06.547Z,42.32
2023-04-21T12:43:08.312Z,42.01
2023-04-21T12:48:10.187Z,41.91
2023-04-21T12:53:11.928Z,41.52
2023-04-21T12:58:15.628Z,41.84
2023-04-21T13:03:17.424Z,41.76
2023-04-21T13:08:19.179Z,41.77
2023-04-21T13:13:20.860Z,42.38
2023-04-21T13:18:22.837Z,42.71
2023-04-21T13:23:24.495Z,42.01
2023-04-21T13:28:26.777Z,42.91
2023-04-21T13:33:28.545Z,44.05
2023-04-21T13:38:30.888Z,43.60
2023-04-21T13:43:32.612Z,43.91
2023-04-21T13:48:34.268Z,43.36
2023-04-21T13:53:36.211Z,42.65
2023-04-21T13:58:38.018Z,42.93
2023-04-21T14:03:39.964Z,43.07
2023-04-21T14:08:42.003Z,42.05
2023-04-21T14:13:59.546Z,42.40
2023-04-21T14:19:05.300Z,44.02
2023-04-21T14:24:07.580Z,43.78
2023-04-21T14:29:09.222Z,44.43
2023-04-21T14:34:11.061Z,44.08
2023-04-21T14:39:12.961Z,43.84
2023-04-21T14:44:15.747Z,45.80
2023-04-21T14:49:17.651Z,44.79
2023-04-21T14:54:19.231Z,44.57
2023-04-21T14:59:20.968Z,44.34
2023-04-21T15:04:22.916Z,44.62
2023-04-21T15:09:25.245Z,44.24
2023-04-21T15:14:26.998Z,45.52
2023-04-21T15:19:28.695Z,45.32
2023-04-21T15:24:30.523Z,44.52
2023-04-21T15:29:32.239Z,45.73
2023-04-21T15:34:34.051Z,45.83
2023-04-21T15:39:35.781Z,46.51
2023-04-21T15:44:39.102Z,46.32
2023-04-21T15:49:40.765Z,46.56
2023-04-21T15:54:46.020Z,47.71
2023-04-21T15:59:47.754Z,48.76
2023-04-21T16:04:49.709Z,47.80
2023-04-21T16:09:51.596Z,48.11
2023-04-21T16:14:59.633Z,48.81
2023-04-21T16:20:09.323Z,49.02
2023-04-21T16:25:13.817Z,49.12
2023-04-21T16:30:15.888Z,48.66
2023-04-21T16:35:17.682Z,51.06
2023-04-21T16:40:19.597Z,52.49
2023-04-21T16:45:21.416Z,52.21
2023-04-21T16:50:23.640Z,51.95
2023-04-21T16:55:25.343Z,52.38
2023-04-21T17:00:27.386Z,52.68
2023-04-21T17:05:30.463Z,54.00
2023-04-21T17:10:32.182Z,54.85
2023-04-21T17:15:34.216Z,55.96
2023-04-21T17:20:36.726Z,56.74
2023-04-21T17:25:38.714Z,57.15
2023-04-21T17:30:40.312Z,57.54
2023-04-21T17:35:55.864Z,58.32
2023-04-21T17:41:06.694Z,58.57
2023-04-21T17:46:08.581Z,58.72
2023-04-21T17:51:11.042Z,58.36
2023-04-21T17:56:14.573Z,58.59
2023-04-21T18:01:17.020Z,58.20
2023-04-21T18:06:18.851Z,57.98
2023-04-21T18:11:20.545Z,58.33
2023-04-21T18:16:22.489Z,58.10
2023-04-21T18:21:24.396Z,58.96
2023-04-21T18:26:26.653Z,59.86
2023-04-21T18:31:29.797Z,60.60
2023-04-21T18:36:33.458Z,60.46
2023-04-21T18:41:37.272Z,60.40
2023-04-21T18:46:38.968Z,60.55
2023-04-21T18:51:40.756Z,61.16
2023-04-21T18:56:42.418Z,61.02
2023-04-21T19:01:44.351Z,61.66
2023-04-21T19:06:46.198Z,61.96
2023-04-21T19:11:47.901Z,62.87
2023-04-21T19:16:51.831Z,63.09
2023-04-21T19:21:53.584Z,64.45
2023-04-21T19:26:55.867Z,64.41
2023-04-21T19:31:58.349Z,64.79
2023-04-21T19:37:00.469Z,65.57
2023-04-21T19:42:02.061Z,65.50
2023-04-21T19:47:03.784Z,65.97
2023-04-21T19:52:05.998Z,65.85
2023-04-21T19:57:07.698Z,67.42
2023-04-21T20:02:09.632Z,67.78
2023-04-21T20:07:11.517Z,67.94
2023-04-21T20:12:13.146Z,68.54
2023-04-21T20:17:14.727Z,69.00
2023-04-21T20:22:16.350Z,70.08
2023-04-21T20:27:18.493Z,70.95
2023-04-21T20:32:20.265Z,71.42
2023-04-21T20:37:23.385Z,71.00
2023-04-21T20:42:25.414Z,71.62
2023-04-21T20:47:27.031Z,71.71
2023-04-21T20:52:28.666Z,71.75
2023-04-21T20:57:30.707Z,71.85
2023-04-21T21:02:32.449Z,72.07
2023-04-21T21:07:34.290Z,72.55
2023-04-21T21:12:35.932Z,72.31
2023-04-21T21:17:37.690Z,73.43
2023-04-21T21:22:39.363Z,73.41
2023-04-21T21:27:41.047Z,73.22
2023-04-21T21:32:42.756Z,74.59
2023-04-21T21:37:44.469Z,75.41
2023-04-21T21:42:46.054Z,75.32
2023-04-21T21:47:47.756Z,75.72
2023-04-21T21:52:49.493Z,75.48
2023-04-21T21:57:51.221Z,75.23
2023-04-21T22:02:53.011Z,75.26
2023-04-21T22:07:56.806Z,75.17
2023-04-21T22:12:58.485Z,75.10
2023-04-21T22:18:00.304Z,75.47
2023-04-21T22:23:02.818Z,75.00
2023-04-21T22:28:04.750Z,75.08
2023-04-21T22:33:06.775Z,75.05
2023-04-21T22:38:08.473Z,75.59
2023-04-21T22:43:10.173Z,76.44
2023-04-21T22:48:14.085Z,76.25
2023-04-21T22:53:15.833Z,75.93
2023-04-21T22:58:17.481Z,75.86
2023-04-21T23:03:19.337Z,76.48
2023-04-21T23:08:21.130Z,78.03
2023-04-21T23:13:23.072Z,77.91
2023-04-21T23:18:24.762Z,77.85
2023-04-21T23:23:26.521Z,78.33
2023-04-21T23:28:28.172Z,78.85
2023-04-21T23:33:29.892Z,79.32
2023-04-21T23:38:31.716Z,79.17
2023-04-21T23:43:34.579Z,78.93
2023-04-21T23:48:36.506Z,79.37
2023-04-21T23:53:38.270Z,79.31
2023-04-21T23:58:39.885Z,79.12
